createdAt,value
2019-01-20T00:01:45.604Z,-0.06
2019-01-20T00:04:15.694Z,-0.08
2019-01-20T00:06:45.001Z,-0.07
2019-01-20T00:09:14.326Z,-0.07
2019-01-20T00:11:43.828Z,-0.08
2019-01-20T00:14:13.207Z,-0.07
2019-01-20T00:16:43.684Z,-0.06
2019-01-20T00:19:12.918Z,-0.08
2019-01-20T00:21:42.699Z,-0.09
2019-01-20T00:24:14.118Z,-0.11
2019-01-20T00:26:46.473Z,-0.12
2019-01-20T00:29:18.848Z,-0.10
2019-01-20T00:31:48.414Z,-0.08
2019-01-20T00:34:17.907Z,-0.08
2019-01-20T00:36:47.321Z,-0.10
2019-01-20T00:39:16.838Z,-0.08
2019-01-20T00:41:46.167Z,-0.10
2019-01-20T00:44:15.647Z,-0.13
2019-01-20T00:46:45.052Z,-0.15
2019-01-20T00:49:14.475Z,-0.16
2019-01-20T00:51:45.945Z,-0.14
2019-01-20T00:54:15.359Z,-0.18
2019-01-20T00:56:45.762Z,-0.22
2019-01-20T00:59:15.101Z,-0.21
2019-01-20T01:01:44.516Z,-0.23
2019-01-20T01:04:13.838Z,-0.25
2019-01-20T01:06:43.481Z,-0.32
2019-01-20T01:09:13.029Z,-0.28
2019-01-20T01:11:42.440Z,-0.29
2019-01-20T01:14:11.846Z,-0.33
2019-01-20T01:16:41.276Z,-0.35
2019-01-20T01:19:10.651Z,-0.35
2019-01-20T01:21:40.463Z,-0.38
2019-01-20T01:24:22.387Z,-0.42
2019-01-20T01:26:52.406Z,-0.44
2019-01-20T01:29:21.876Z,-0.46
2019-01-20T01:31:51.273Z,-0.44
2019-01-20T01:34:20.637Z,-0.43
2019-01-20T01:36:50.975Z,-0.43
2019-01-20T01:39:20.262Z,-0.44
2019-01-20T01:41:49.706Z,-0.45
2019-01-20T01:44:19.072Z,-0.46
2019-01-20T01:46:48.506Z,-0.42
2019-01-20T01:49:18.148Z,-0.42
2019-01-20T01:51:48.054Z,-0.44
2019-01-20T01:54:17.533Z,-0.41
2019-01-20T01:56:47.591Z,-0.42
2019-01-20T01:59:17.467Z,-0.45
2019-01-20T02:01:47.637Z,-0.46
2019-01-20T02:04:16.983Z,-0.46
2019-01-20T02:06:46.466Z,-0.47
2019-01-20T02:09:15.682Z,-0.49
2019-01-20T02:11:46.977Z,-0.47
2019-01-20T02:14:16.232Z,-0.48
2019-01-20T02:16:45.998Z,-0.49
2019-01-20T02:19:15.446Z,-0.51
2019-01-20T02:21:47.614Z,-0.53
2019-01-20T02:24:17.782Z,-0.53
2019-01-20T02:26:47.097Z,-0.51
2019-01-20T02:29:17.172Z,-0.55
2019-01-20T02:31:46.585Z,-0.55
2019-01-20T02:34:16.250Z,-0.56
2019-01-20T02:36:45.692Z,-0.59
2019-01-20T02:39:15.057Z,-0.62
2019-01-20T02:41:44.570Z,-0.67
2019-01-20T02:44:14.146Z,-0.70
2019-01-20T02:46:43.714Z,-0.72
2019-01-20T02:49:13.318Z,-0.75
2019-01-20T02:51:42.867Z,-0.73
2019-01-20T02:54:13.023Z,-0.73
2019-01-20T02:56:42.322Z,-0.74
2019-01-20T02:59:12.095Z,-0.74
2019-01-20T03:01:41.584Z,-0.77
2019-01-20T03:04:10.921Z,-0.77
2019-01-20T03:06:40.303Z,-0.78
2019-01-20T03:09:12.696Z,-0.76
2019-01-20T03:12:03.577Z,-0.80
2019-01-20T03:14:34.928Z,-0.79
2019-01-20T03:17:04.204Z,-0.82
2019-01-20T03:19:33.578Z,-0.84
2019-01-20T03:22:02.824Z,-0.86
2019-01-20T03:24:34.433Z,-0.87
2019-01-20T03:27:03.782Z,-0.87
2019-01-20T03:29:33.106Z,-0.91
2019-01-20T03:32:03.231Z,-0.94
2019-01-20T03:34:32.809Z,-0.97
2019-01-20T03:37:02.161Z,-0.97
2019-01-20T03:39:31.461Z,-1.02
2019-01-20T03:42:00.937Z,-1.03
2019-01-20T03:44:30.295Z,-1.05
2019-01-20T03:47:01.931Z,-1.03
2019-01-20T03:49:31.251Z,-1.02
2019-01-20T03:52:00.603Z,-0.98
2019-01-20T03:54:30.129Z,-0.93
2019-01-20T03:57:02.588Z,-0.93
2019-01-20T03:59:34.880Z,-0.94
2019-01-20T04:02:04.555Z,-0.96
2019-01-20T04:04:33.834Z,-0.98
2019-01-20T04:07:03.169Z,-0.99
2019-01-20T04:09:32.571Z,-0.99
2019-01-20T04:12:02.474Z,-1.02
2019-01-20T04:14:31.852Z,-1.03
2019-01-20T04:17:03.647Z,-1.06
2019-01-20T04:19:32.946Z,-1.09
2019-01-20T04:22:06.126Z,-1.11
2019-01-20T04:24:35.466Z,-1.09
2019-01-20T04:27:05.093Z,-1.14
2019-01-20T04:29:34.348Z,-1.15
2019-01-20T04:32:03.712Z,-1.17
2019-01-20T04:34:34.098Z,-1.19
2019-01-20T04:37:03.507Z,-1.22
2019-01-20T04:39:33.116Z,-1.24
2019-01-20T04:42:03.458Z,-1.26
2019-01-20T04:44:32.735Z,-1.30
2019-01-20T04:47:02.205Z,-1.30
2019-01-20T04:49:31.583Z,-1.31
2019-01-20T04:52:04.032Z,-1.31
2019-01-20T04:54:33.747Z,-1.28
2019-01-20T04:57:03.120Z,-1.29
2019-01-20T04:59:32.483Z,-1.30
2019-01-20T05:02:01.892Z,-1.29
2019-01-20T05:04:31.480Z,-1.27
2019-01-20T05:07:01.845Z,-1.26
2019-01-20T05:09:31.209Z,-1.22
2019-01-20T05:12:08.241Z,-1.22
2019-01-20T05:14:37.567Z,-1.21
2019-01-20T05:17:11.342Z,-1.21
2019-01-20T05:19:40.673Z,-1.22
2019-01-20T05:22:12.368Z,-1.26
2019-01-20T05:24:41.677Z,-1.26
2019-01-20T05:27:11.029Z,-1.29
2019-01-20T05:29:43.195Z,-1.31
2019-01-20T05:32:12.491Z,-1.31
2019-01-20T05:34:41.782Z,-1.29
2019-01-20T05:37:13.945Z,-1.27
2019-01-20T05:39:43.339Z,-1.28
2019-01-20T05:42:12.697Z,-1.27
2019-01-20T05:44:42.001Z,-1.25
2019-01-20T05:47:12.023Z,-1.23
2019-01-20T05:49:43.593Z,-1.26
2019-01-20T05:52:13.139Z,-1.28
2019-01-20T05:54:42.541Z,-1.29
2019-01-20T05:57:11.841Z,-1.28
2019-01-20T05:59:41.205Z,-1.32
2019-01-20T06:02:10.613Z,-1.32
2019-01-20T06:04:40.916Z,-1.36
2019-01-20T06:07:10.444Z,-1.37
2019-01-20T06:09:39.854Z,-1.33
2019-01-20T06:12:12.421Z,-1.36
2019-01-20T06:14:42.295Z,-1.32
2019-01-20T06:17:11.701Z,-1.31
2019-01-20T06:19:40.999Z,-1.32
2019-01-20T06:22:10.488Z,-1.34
2019-01-20T06:24:40.405Z,-1.33
2019-01-20T06:27:10.231Z,-1.33
2019-01-20T06:29:39.707Z,-1.32
2019-01-20T06:32:09.558Z,-1.33
2019-01-20T06:34:39.543Z,-1.34
2019-01-20T06:37:09.227Z,-1.35
2019-01-20T06:39:38.782Z,-1.35
2019-01-20T06:42:08.136Z,-1.34
2019-01-20T06:44:37.717Z,-1.34
2019-01-20T06:47:07.399Z,-1.33
2019-01-20T06:49:36.671Z,-1.38
2019-01-20T06:52:05.999Z,-1.36
2019-01-20T06:54:35.430Z,-1.35
2019-01-20T06:57:04.798Z,-1.35
2019-01-20T06:59:34.138Z,-1.35
2019-01-20T07:02:03.391Z,-1.33
2019-01-20T07:04:34.709Z,-1.37
2019-01-20T07:07:03.984Z,-1.38
2019-01-20T07:09:33.277Z,-1.41
2019-01-20T07:12:05.337Z,-1.41
2019-01-20T07:14:40.007Z,-1.42
2019-01-20T07:17:09.387Z,-1.43
2019-01-20T07:19:39.416Z,-1.41
2019-01-20T07:22:08.741Z,-1.41
2019-01-20T07:24:38.074Z,-1.42
2019-01-20T07:27:07.579Z,-1.43
2019-01-20T07:29:36.917Z,-1.44
2019-01-20T07:32:06.261Z,-1.44
2019-01-20T07:34:35.497Z,-1.42
2019-01-20T07:37:04.883Z,-1.41
2019-01-20T07:39:34.169Z,-1.40
2019-01-20T07:42:03.664Z,-1.40
2019-01-20T07:44:32.962Z,-1.39
2019-01-20T07:47:02.309Z,-1.40
2019-01-20T07:49:31.632Z,-1.39
2019-01-20T07:52:01.083Z,-1.38
2019-01-20T07:54:30.498Z,-1.40
2019-01-20T07:57:00.152Z,-1.41
2019-01-20T07:59:29.559Z,-1.40
2019-01-20T08:01:59.497Z,-1.37
2019-01-20T08:04:28.835Z,-1.40
2019-01-20T08:06:58.221Z,-1.40
2019-01-20T08:09:29.988Z,-1.41
2019-01-20T08:12:04.017Z,-1.37
2019-01-20T08:14:35.488Z,-1.39
2019-01-20T08:17:08.146Z,-1.38
2019-01-20T08:19:37.508Z,-1.39
2019-01-20T08:22:06.844Z,-1.37
2019-01-20T08:24:36.170Z,-1.37
2019-01-20T08:27:08.669Z,-1.38
2019-01-20T08:29:40.948Z,-1.36
2019-01-20T08:32:10.216Z,-1.34
2019-01-20T08:34:39.543Z,-1.32
2019-01-20T08:37:08.877Z,-1.31
2019-01-20T08:39:39.034Z,-1.27
2019-01-20T08:42:10.874Z,-1.24
2019-01-20T08:44:42.816Z,-1.23
2019-01-20T08:47:52.543Z,-1.23
2019-01-20T08:50:24.656Z,-1.21
2019-01-20T08:52:54.373Z,-1.16
2019-01-20T08:55:23.828Z,-1.12
2019-01-20T08:57:53.429Z,-1.09
2019-01-20T09:00:22.834Z,-1.02
2019-01-20T09:02:54.830Z,-0.97
2019-01-20T09:05:24.713Z,-0.92
2019-01-20T09:07:54.528Z,-0.87
2019-01-20T09:10:26.138Z,-0.81
2019-01-20T09:12:57.336Z,-0.79
2019-01-20T09:15:27.604Z,-0.71
2019-01-20T09:17:59.794Z,-0.69
2019-01-20T09:20:30.648Z,-0.65
2019-01-20T09:23:00.038Z,-0.61
2019-01-20T09:25:29.644Z,-0.56
2019-01-20T09:27:58.935Z,-0.50
2019-01-20T09:30:31.450Z,-0.42
2019-01-20T09:33:01.961Z,-0.38
2019-01-20T09:35:31.525Z,-0.34
2019-01-20T09:38:01.037Z,-0.27
2019-01-20T09:40:30.397Z,-0.20
2019-01-20T09:42:59.768Z,-0.14
2019-01-20T09:45:33.879Z,-0.06
2019-01-20T09:48:03.758Z,0.03
2019-01-20T09:50:33.252Z,0.09
2019-01-20T09:53:02.727Z,0.15
2019-01-20T09:55:32.604Z,0.26
2019-01-20T09:58:02.479Z,0.33
2019-01-20T10:00:32.649Z,0.40
2019-01-20T10:03:02.564Z,0.44
2019-01-20T10:05:32.190Z,0.62
2019-01-20T10:08:02.290Z,0.68
2019-01-20T10:10:31.629Z,0.75
2019-01-20T10:13:00.981Z,0.83
2019-01-20T10:15:30.452Z,1.04
2019-01-20T10:17:59.842Z,1.13
2019-01-20T10:20:37.349Z,1.18
2019-01-20T10:23:08.229Z,1.19
2019-01-20T10:25:37.630Z,1.23
2019-01-20T10:28:11.784Z,1.25
2019-01-20T10:30:41.304Z,1.33
2019-01-20T10:33:10.747Z,1.43
2019-01-20T10:36:02.116Z,1.44
2019-01-20T10:38:31.703Z,1.44
2019-01-20T10:41:03.235Z,1.42
2019-01-20T10:43:34.165Z,1.46
2019-01-20T10:46:03.669Z,1.50
2019-01-20T10:48:33.264Z,1.46
2019-01-20T10:51:02.707Z,1.50
2019-01-20T10:53:32.240Z,1.69
2019-01-20T10:56:01.722Z,1.65
2019-01-20T10:58:31.115Z,1.75
2019-01-20T11:01:00.709Z,1.73
2019-01-20T11:03:31.902Z,1.74
2019-01-20T11:06:03.354Z,1.82
2019-01-20T11:08:35.467Z,1.84
2019-01-20T11:11:05.541Z,1.84
2019-01-20T11:13:37.778Z,1.87
2019-01-20T11:16:07.352Z,1.88
2019-01-20T11:18:38.623Z,1.95
2019-01-20T11:21:08.118Z,2.03
2019-01-20T11:23:38.292Z,2.01
2019-01-20T11:26:07.738Z,2.00
2019-01-20T11:28:37.668Z,2.04
2019-01-20T11:31:07.152Z,2.10
2019-01-20T11:33:39.525Z,2.18
2019-01-20T11:36:08.877Z,2.21
2019-01-20T11:38:38.605Z,2.24
2019-01-20T11:41:08.807Z,2.26
2019-01-20T11:43:38.344Z,2.34
2019-01-20T11:46:10.466Z,2.32
2019-01-20T11:48:40.327Z,2.35
2019-01-20T11:51:09.793Z,2.35
2019-01-20T11:53:41.775Z,2.38
2019-01-20T11:56:11.175Z,2.38
2019-01-20T11:58:41.374Z,2.39
2019-01-20T12:01:10.726Z,2.41
2019-01-20T12:03:40.441Z,2.47
2019-01-20T12:06:12.137Z,2.50
2019-01-20T12:08:41.646Z,2.57
2019-01-20T12:11:11.031Z,2.62
2019-01-20T12:13:40.897Z,2.67
2019-01-20T12:16:14.481Z,2.70
2019-01-20T12:18:43.888Z,2.75
2019-01-20T12:21:13.435Z,2.82
2019-01-20T12:23:46.020Z,2.94
2019-01-20T12:26:15.460Z,3.42
2019-01-20T12:28:45.910Z,4.82
2019-01-20T12:31:15.328Z,5.51
2019-01-20T12:33:44.979Z,6.42
2019-01-20T12:36:14.360Z,7.25
2019-01-20T12:38:43.823Z,7.63
2019-01-20T12:41:13.287Z,8.30
2019-01-20T12:43:46.232Z,8.47
2019-01-20T12:46:16.019Z,8.47
2019-01-20T12:48:48.413Z,8.28
2019-01-20T12:51:17.870Z,8.83
2019-01-20T12:53:50.592Z,9.16
2019-01-20T12:56:19.994Z,9.90
2019-01-20T12:58:51.034Z,9.50
2019-01-20T13:01:20.545Z,9.44
2019-01-20T13:03:50.271Z,9.13
2019-01-20T13:06:20.955Z,8.93
2019-01-20T13:08:50.605Z,8.56
2019-01-20T13:11:22.093Z,9.20
2019-01-20T13:13:51.802Z,9.13
2019-01-20T13:16:21.918Z,8.73
2019-01-20T13:18:52.853Z,8.82
2019-01-20T13:21:22.179Z,8.59
2019-01-20T13:23:52.140Z,9.27
2019-01-20T13:26:21.810Z,9.59
2019-01-20T13:29:05.817Z,10.39
2019-01-20T13:31:35.174Z,9.84
2019-01-20T13:34:04.608Z,9.76
2019-01-20T13:36:33.957Z,9.69
2019-01-20T13:39:04.206Z,8.96
2019-01-20T13:41:34.453Z,8.29
2019-01-20T13:44:03.877Z,7.83
2019-01-20T13:46:33.585Z,7.19
2019-01-20T13:49:05.781Z,6.67
2019-01-20T13:51:35.161Z,6.29
2019-01-20T13:54:04.528Z,5.93
2019-01-20T13:56:33.898Z,5.59
2019-01-20T13:59:03.607Z,5.26
2019-01-20T14:01:32.982Z,5.08
2019-01-20T14:04:04.462Z,4.94
2019-01-20T14:06:33.909Z,4.86
2019-01-20T14:09:04.056Z,4.71
2019-01-20T14:11:34.287Z,4.54
2019-01-20T14:14:03.736Z,4.36
2019-01-20T14:16:36.292Z,4.29
2019-01-20T14:19:05.748Z,4.22
2019-01-20T14:21:35.497Z,4.14
2019-01-20T14:24:04.908Z,4.08
2019-01-20T14:26:34.390Z,4.00
2019-01-20T14:29:07.250Z,4.05
2019-01-20T14:31:42.073Z,3.94
2019-01-20T14:34:14.011Z,3.85
2019-01-20T14:36:43.465Z,3.80
2019-01-20T14:39:13.819Z,3.84
2019-01-20T14:41:43.777Z,3.77
2019-01-20T14:44:13.364Z,3.72
2019-01-20T14:46:42.854Z,3.68
2019-01-20T14:49:12.196Z,3.65
2019-01-20T14:51:41.621Z,3.63
2019-01-20T14:54:11.035Z,3.57
2019-01-20T14:56:40.438Z,3.58
2019-01-20T14:59:09.787Z,3.53
2019-01-20T15:01:39.149Z,3.51
2019-01-20T15:04:10.965Z,3.49
2019-01-20T15:06:40.378Z,3.42
2019-01-20T15:09:10.140Z,3.51
2019-01-20T15:11:39.625Z,3.43
2019-01-20T15:14:12.119Z,3.46
2019-01-20T15:16:41.641Z,3.42
2019-01-20T15:19:11.253Z,3.38
2019-01-20T15:21:40.590Z,3.37
2019-01-20T15:24:12.289Z,3.37
2019-01-20T15:26:41.722Z,3.30
2019-01-20T15:29:11.154Z,3.40
2019-01-20T15:31:40.651Z,3.41
2019-01-20T15:34:09.966Z,3.36
2019-01-20T15:36:39.355Z,3.30
2019-01-20T15:39:10.438Z,3.29
2019-01-20T15:41:42.566Z,3.28
2019-01-20T15:44:11.950Z,3.26
2019-01-20T15:46:43.159Z,3.26
2019-01-20T15:49:12.512Z,3.19
2019-01-20T15:51:42.222Z,3.15
2019-01-20T15:54:12.000Z,3.10
2019-01-20T15:56:41.387Z,3.05
2019-01-20T15:59:11.831Z,3.04
2019-01-20T16:01:41.243Z,3.01
2019-01-20T16:04:10.591Z,2.97
2019-01-20T16:06:40.027Z,2.95
2019-01-20T16:09:10.301Z,2.98
2019-01-20T16:11:39.624Z,2.99
2019-01-20T16:14:09.033Z,2.94
2019-01-20T16:16:38.430Z,2.91
2019-01-20T16:19:10.910Z,2.87
2019-01-20T16:21:40.544Z,2.84
2019-01-20T16:24:09.906Z,2.84
2019-01-20T16:26:39.437Z,2.80
2019-01-20T16:29:08.844Z,2.76
2019-01-20T16:31:39.925Z,2.73
2019-01-20T16:34:09.434Z,2.77
2019-01-20T16:36:38.778Z,2.75
2019-01-20T16:39:11.654Z,2.73
2019-01-20T16:41:42.225Z,2.73
2019-01-20T16:44:11.713Z,2.72
2019-01-20T16:46:41.161Z,2.65
2019-01-20T16:49:12.859Z,2.66
2019-01-20T16:51:42.358Z,2.60
2019-01-20T16:54:11.816Z,2.52
2019-01-20T16:56:41.543Z,2.46
2019-01-20T16:59:10.957Z,2.44
2019-01-20T17:01:40.844Z,2.39
2019-01-20T17:04:10.525Z,2.32
2019-01-20T17:06:39.960Z,2.32
2019-01-20T17:09:09.847Z,2.27
2019-01-20T17:11:39.237Z,2.24
2019-01-20T17:14:11.052Z,2.23
2019-01-20T17:16:40.646Z,2.25
2019-01-20T17:19:17.247Z,2.20
2019-01-20T17:21:44.430Z,2.15
2019-01-20T17:24:16.562Z,2.10
2019-01-20T17:26:46.526Z,2.04
2019-01-20T17:29:15.915Z,2.00
2019-01-20T17:31:45.450Z,1.98
2019-01-20T17:34:14.903Z,1.93
2019-01-20T17:36:44.408Z,1.95
2019-01-20T17:39:14.068Z,1.90
2019-01-20T17:41:43.522Z,1.87
2019-01-20T17:44:12.949Z,1.89
2019-01-20T17:46:45.288Z,1.85
2019-01-20T17:49:15.197Z,1.78
2019-01-20T17:51:45.553Z,1.75
2019-01-20T17:54:15.053Z,1.72
2019-01-20T17:56:44.520Z,1.67
2019-01-20T17:59:19.233Z,1.64
2019-01-20T18:01:48.711Z,1.59
2019-01-20T18:04:18.128Z,1.55
2019-01-20T18:06:47.514Z,1.53
2019-01-20T18:09:16.968Z,1.49
2019-01-20T18:11:48.623Z,1.48
2019-01-20T18:14:18.125Z,1.44
2019-01-20T18:16:48.354Z,1.42
2019-01-20T18:19:17.798Z,1.43
2019-01-20T18:21:48.115Z,1.39
2019-01-20T18:24:19.330Z,1.36
2019-01-20T18:26:48.936Z,1.35
2019-01-20T18:29:19.044Z,1.31
2019-01-20T18:31:51.431Z,1.31
2019-01-20T18:34:47.566Z,1.32
2019-01-20T18:37:48.200Z,1.31
2019-01-20T18:40:29.380Z,1.33
2019-01-20T18:43:16.052Z,1.32
2019-01-20T18:46:01.893Z,1.34
2019-01-20T18:48:53.894Z,1.30
2019-01-20T18:51:31.565Z,1.30
2019-01-20T18:54:13.567Z,1.24
2019-01-20T18:56:53.813Z,1.28
2019-01-20T18:59:59.935Z,1.23
2019-01-20T19:02:33.612Z,1.19
2019-01-20T19:05:06.538Z,1.16
2019-01-20T19:07:41.895Z,1.18
2019-01-20T19:10:18.311Z,1.19
2019-01-20T19:12:49.227Z,1.14
2019-01-20T19:15:19.984Z,1.12
2019-01-20T19:17:51.906Z,1.11
2019-01-20T19:20:23.418Z,1.12
2019-01-20T19:22:57.531Z,1.09
2019-01-20T19:25:32.155Z,1.12
2019-01-20T19:28:04.719Z,1.12
2019-01-20T19:30:47.303Z,1.11
2019-01-20T19:33:18.113Z,1.12
2019-01-20T19:35:49.537Z,1.13
2019-01-20T19:38:21.902Z,1.12
2019-01-20T19:40:56.251Z,1.08
2019-01-20T19:43:26.003Z,1.03
2019-01-20T19:45:57.956Z,0.96
2019-01-20T19:48:29.571Z,0.96
2019-01-20T19:51:00.230Z,0.97
2019-01-20T19:53:31.047Z,0.95
2019-01-20T19:56:16.399Z,0.92
2019-01-20T19:58:48.275Z,0.90
2019-01-20T20:01:21.947Z,0.88
2019-01-20T20:03:54.304Z,0.88
2019-01-20T20:06:27.076Z,0.83
2019-01-20T20:08:56.665Z,0.85
2019-01-20T20:11:26.307Z,0.81
2019-01-20T20:13:57.442Z,0.80
2019-01-20T20:16:29.034Z,0.79
2019-01-20T20:19:01.694Z,0.75
2019-01-20T20:21:31.134Z,0.72
2019-01-20T20:24:00.502Z,0.69
2019-01-20T20:26:33.111Z,0.66
2019-01-20T20:29:05.755Z,0.64
2019-01-20T20:31:35.260Z,0.62
2019-01-20T20:34:04.747Z,0.59
2019-01-20T20:36:34.137Z,0.56
2019-01-20T20:39:03.685Z,0.53
2019-01-20T20:41:34.164Z,0.51
2019-01-20T20:44:03.525Z,0.49
2019-01-20T20:46:32.849Z,0.49
2019-01-20T20:49:06.366Z,0.51
2019-01-20T20:51:36.104Z,0.49
2019-01-20T20:54:05.573Z,0.49
2019-01-20T20:56:35.695Z,0.47
2019-01-20T20:59:06.050Z,0.43
2019-01-20T21:01:37.093Z,0.47
2019-01-20T21:04:07.309Z,0.50
2019-01-20T21:06:39.625Z,0.51
2019-01-20T21:09:13.275Z,0.50
2019-01-20T21:11:43.083Z,0.52
2019-01-20T21:14:12.410Z,0.48
2019-01-20T21:16:42.058Z,0.44
2019-01-20T21:19:16.404Z,0.42
2019-01-20T21:21:47.975Z,0.39
2019-01-20T21:24:19.947Z,0.40
2019-01-20T21:26:49.451Z,0.39
2019-01-20T21:29:19.504Z,0.38
2019-01-20T21:31:48.912Z,0.41
2019-01-20T21:34:18.350Z,0.41
2019-01-20T21:36:47.620Z,0.42
2019-01-20T21:39:17.049Z,0.45
2019-01-20T21:41:47.200Z,0.47
2019-01-20T21:44:19.478Z,0.43
2019-01-20T21:46:51.998Z,0.39
2019-01-20T21:49:21.648Z,0.37
2019-01-20T21:51:51.115Z,0.33
2019-01-20T21:54:20.550Z,0.33
2019-01-20T21:56:51.048Z,0.28
2019-01-20T21:59:23.482Z,0.27
2019-01-20T22:01:56.185Z,0.25
2019-01-20T22:04:26.227Z,0.27
2019-01-20T22:06:56.819Z,0.26
2019-01-20T22:09:27.997Z,0.26
2019-01-20T22:11:57.999Z,0.24
2019-01-20T22:14:31.528Z,0.23
2019-01-20T22:17:01.813Z,0.21
2019-01-20T22:19:32.207Z,0.20
2019-01-20T22:22:04.812Z,0.18
2019-01-20T22:24:34.209Z,0.14
2019-01-20T22:27:03.560Z,0.11
2019-01-20T22:29:35.021Z,0.09
2019-01-20T22:32:04.407Z,0.05
2019-01-20T22:34:36.082Z,0.03
2019-01-20T22:37:05.535Z,0.00
2019-01-20T22:39:38.277Z,-0.06
2019-01-20T22:42:07.727Z,-0.04
2019-01-20T22:44:37.440Z,-0.05
2019-01-20T22:47:07.242Z,-0.06
2019-01-20T22:49:38.289Z,-0.09
2019-01-20T22:52:08.551Z,-0.11
2019-01-20T22:54:38.341Z,-0.11
2019-01-20T22:57:08.594Z,-0.10
2019-01-20T22:59:38.245Z,-0.10
2019-01-20T23:02:08.457Z,-0.09
2019-01-20T23:04:38.919Z,-0.11
2019-01-20T23:07:09.167Z,-0.11
2019-01-20T23:09:40.374Z,-0.10
2019-01-20T23:12:11.778Z,-0.16
2019-01-20T23:14:48.912Z,-0.20
2019-01-20T23:17:19.691Z,-0.23
2019-01-20T23:19:51.338Z,-0.22
2019-01-20T23:22:20.787Z,-0.24
2019-01-20T23:24:50.283Z,-0.24
2019-01-20T23:27:22.334Z,-0.30
2019-01-20T23:29:52.442Z,-0.35
2019-01-20T23:32:23.557Z,-0.34
2019-01-20T23:34:56.876Z,-0.36
2019-01-20T23:37:30.111Z,-0.39
2019-01-20T23:39:59.470Z,-0.41
2019-01-20T23:42:29.161Z,-0.43
2019-01-20T23:45:02.717Z,-0.43
2019-01-20T23:47:33.667Z,-0.46
2019-01-20T23:50:10.327Z,-0.48
2019-01-20T23:52:42.081Z,-0.48
2019-01-20T23:55:11.872Z,-0.50
2019-01-20T23:57:42.231Z,-0.53
